createdAt,value
2018-07-09T00:00:17.870Z,1.98
2018-07-09T00:01:22.342Z,1.90
2018-07-09T00:02:25.766Z,1.75
2018-07-09T00:03:29.151Z,1.65
2018-07-09T00:04:32.536Z,1.85
2018-07-09T00:05:41.419Z,1.72
2018-07-09T00:06:44.840Z,1.85
2018-07-09T00:07:48.239Z,1.80
2018-07-09T00:08:51.615Z,1.62
2018-07-09T00:09:55.015Z,1.77
2018-07-09T00:11:04.528Z,1.95
2018-07-09T00:12:07.959Z,1.87
2018-07-09T00:13:11.369Z,1.80
2018-07-09T00:14:14.447Z,1.82
2018-07-09T00:15:24.923Z,1.80
2018-07-09T00:16:29.163Z,1.80
2018-07-09T00:17:32.551Z,1.70
2018-07-09T00:18:35.959Z,1.80
2018-07-09T00:19:39.338Z,1.87
2018-07-09T00:20:44.058Z,2.10
2018-07-09T00:21:47.461Z,1.80
2018-07-09T00:22:50.546Z,1.72
2018-07-09T00:23:53.667Z,1.95
2018-07-09T00:24:57.056Z,2.55
2018-07-09T00:26:02.495Z,2.22
2018-07-09T00:27:05.895Z,1.90
2018-07-09T00:28:09.300Z,1.95
2018-07-09T00:29:12.720Z,2.10
2018-07-09T00:30:17.299Z,1.70
2018-07-09T00:31:21.873Z,1.82
2018-07-09T00:32:25.263Z,1.77
2018-07-09T00:33:28.668Z,2.20
2018-07-09T00:34:32.079Z,2.08
2018-07-09T00:35:36.070Z,2.08
2018-07-09T00:36:39.171Z,1.65
2018-07-09T00:37:42.260Z,1.80
2018-07-09T00:38:45.375Z,2.47
2018-07-09T00:39:48.803Z,2.15
2018-07-09T00:40:52.736Z,1.95
2018-07-09T00:41:56.159Z,1.95
2018-07-09T00:42:59.571Z,2.00
2018-07-09T00:44:02.963Z,2.00
2018-07-09T00:45:07.668Z,2.27
2018-07-09T00:46:11.569Z,1.87
2018-07-09T00:47:14.996Z,2.65
2018-07-09T00:48:18.427Z,2.33
2018-07-09T00:49:21.815Z,2.05
2018-07-09T00:50:26.874Z,2.00
2018-07-09T00:51:31.231Z,2.00
2018-07-09T00:52:34.640Z,1.85
2018-07-09T00:53:38.024Z,1.92
2018-07-09T00:54:41.441Z,1.90
2018-07-09T00:55:46.287Z,2.12
2018-07-09T00:56:50.446Z,1.75
2018-07-09T00:57:53.828Z,2.10
2018-07-09T00:58:57.207Z,2.30
2018-07-09T01:00:00.700Z,1.92
2018-07-09T01:01:05.696Z,2.05
2018-07-09T01:02:09.155Z,2.30
2018-07-09T01:03:12.547Z,1.95
2018-07-09T01:04:15.943Z,1.87
2018-07-09T01:05:22.344Z,1.82
2018-07-09T01:06:27.225Z,2.15
2018-07-09T01:07:30.628Z,1.90
2018-07-09T01:08:34.027Z,2.05
2018-07-09T01:09:37.483Z,1.70
2018-07-09T01:10:53.205Z,2.20
2018-07-09T01:12:01.806Z,2.12
2018-07-09T01:13:05.200Z,2.02
2018-07-09T01:14:09.242Z,1.70
2018-07-09T01:15:13.713Z,2.08
2018-07-09T01:16:18.234Z,2.25
2018-07-09T01:17:21.695Z,2.00
2018-07-09T01:18:25.083Z,2.20
2018-07-09T01:19:28.483Z,2.17
2018-07-09T01:20:33.264Z,1.90
2018-07-09T01:21:36.756Z,2.00
2018-07-09T01:22:40.135Z,2.15
2018-07-09T01:23:43.551Z,1.92
2018-07-09T01:24:46.951Z,2.50
2018-07-09T01:25:51.470Z,2.02
2018-07-09T01:26:55.025Z,1.90
2018-07-09T01:27:58.411Z,2.20
2018-07-09T01:29:01.791Z,2.08
2018-07-09T01:30:14.532Z,2.17
2018-07-09T01:31:18.410Z,2.05
2018-07-09T01:32:21.538Z,2.30
2018-07-09T01:33:24.948Z,2.08
2018-07-09T01:34:28.332Z,2.40
2018-07-09T01:35:33.548Z,2.08
2018-07-09T01:36:36.976Z,2.02
2018-07-09T01:37:41.079Z,1.90
2018-07-09T01:38:44.480Z,2.15
2018-07-09T01:39:47.562Z,2.20
2018-07-09T01:40:52.153Z,2.00
2018-07-09T01:41:55.563Z,2.27
2018-07-09T01:42:58.963Z,2.20
2018-07-09T01:44:02.339Z,1.92
2018-07-09T01:45:06.675Z,1.98
2018-07-09T01:46:11.187Z,2.08
2018-07-09T01:47:14.636Z,2.15
2018-07-09T01:48:18.075Z,2.30
2018-07-09T01:49:21.463Z,2.35
2018-07-09T01:50:27.000Z,1.98
2018-07-09T01:51:30.583Z,2.40
2018-07-09T01:52:34.108Z,2.20
2018-07-09T01:53:37.573Z,2.20
2018-07-09T01:54:40.959Z,2.12
2018-07-09T01:55:45.451Z,2.00
2018-07-09T01:56:48.879Z,2.08
2018-07-09T01:57:52.279Z,1.98
2018-07-09T01:58:55.667Z,2.20
2018-07-09T01:59:59.059Z,1.95
2018-07-09T02:01:04.502Z,2.08
2018-07-09T02:02:08.079Z,2.20
2018-07-09T02:03:11.464Z,2.05
2018-07-09T02:04:14.860Z,1.90
2018-07-09T02:05:19.883Z,2.02
2018-07-09T02:06:24.096Z,2.10
2018-07-09T02:07:27.567Z,2.10
2018-07-09T02:08:30.971Z,1.95
2018-07-09T02:09:34.047Z,1.80
2018-07-09T02:10:38.527Z,1.90
2018-07-09T02:11:41.916Z,1.95
2018-07-09T02:12:45.296Z,2.20
2018-07-09T02:13:48.941Z,2.12
2018-07-09T02:14:52.323Z,2.22
2018-07-09T02:15:56.830Z,2.08
2018-07-09T02:17:00.239Z,2.05
2018-07-09T02:18:03.631Z,1.90
2018-07-09T02:19:07.052Z,2.20
2018-07-09T02:20:11.487Z,2.05
2018-07-09T02:21:15.955Z,1.87
2018-07-09T02:22:19.375Z,2.02
2018-07-09T02:23:22.827Z,2.10
2018-07-09T02:24:26.240Z,2.12
2018-07-09T02:25:31.881Z,1.95
2018-07-09T02:26:34.983Z,2.00
2018-07-09T02:27:38.373Z,2.10
2018-07-09T02:28:41.759Z,1.72
2018-07-09T02:29:45.175Z,1.98
2018-07-09T02:30:50.184Z,2.10
2018-07-09T02:31:53.591Z,2.15
2018-07-09T02:32:57.072Z,1.92
2018-07-09T02:34:00.468Z,2.00
2018-07-09T02:35:04.901Z,1.90
2018-07-09T02:36:09.340Z,2.00
2018-07-09T02:37:12.744Z,2.33
2018-07-09T02:38:16.144Z,2.08
2018-07-09T02:39:19.527Z,2.70
2018-07-09T02:40:24.087Z,2.17
2018-07-09T02:41:28.628Z,2.33
2018-07-09T02:42:32.043Z,1.90
2018-07-09T02:43:35.443Z,2.08
2018-07-09T02:44:38.838Z,2.20
2018-07-09T02:45:43.725Z,2.33
2018-07-09T02:46:51.599Z,2.35
2018-07-09T02:47:54.683Z,2.42
2018-07-09T02:48:58.093Z,2.80
2018-07-09T02:50:01.512Z,2.20
2018-07-09T02:51:06.334Z,2.60
2018-07-09T02:52:09.736Z,2.33
2018-07-09T02:53:13.131Z,2.87
2018-07-09T02:54:16.502Z,2.52
2018-07-09T02:55:20.900Z,2.20
2018-07-09T02:56:25.051Z,2.17
2018-07-09T02:57:28.479Z,2.30
2018-07-09T02:58:31.867Z,2.30
2018-07-09T02:59:35.251Z,2.20
2018-07-09T03:00:39.822Z,2.50
2018-07-09T03:01:43.373Z,2.90
2018-07-09T03:02:46.792Z,2.40
2018-07-09T03:03:50.236Z,2.37
2018-07-09T03:04:53.628Z,2.47
2018-07-09T03:05:58.089Z,2.60
2018-07-09T03:07:01.530Z,2.58
2018-07-09T03:08:04.917Z,2.67
2018-07-09T03:09:08.696Z,2.83
2018-07-09T03:10:13.342Z,2.85
2018-07-09T03:11:17.824Z,2.55
2018-07-09T03:12:20.965Z,2.47
2018-07-09T03:13:24.372Z,2.20
2018-07-09T03:14:27.779Z,2.42
2018-07-09T03:15:32.730Z,2.10
2018-07-09T03:16:36.200Z,2.45
2018-07-09T03:17:39.610Z,2.50
2018-07-09T03:18:42.683Z,2.60
2018-07-09T03:19:45.767Z,2.60
2018-07-09T03:20:50.804Z,2.50
2018-07-09T03:21:54.276Z,2.75
2018-07-09T03:22:57.378Z,2.45
2018-07-09T03:24:00.774Z,2.20
2018-07-09T03:25:04.980Z,2.50
2018-07-09T03:26:10.405Z,2.22
2018-07-09T03:27:13.827Z,2.40
2018-07-09T03:28:17.224Z,2.30
2018-07-09T03:29:20.611Z,2.60
2018-07-09T03:30:25.030Z,2.70
2018-07-09T03:31:29.273Z,2.45
2018-07-09T03:32:32.663Z,2.50
2018-07-09T03:33:36.071Z,2.37
2018-07-09T03:34:39.451Z,3.10
2018-07-09T03:35:43.811Z,2.47
2018-07-09T03:36:46.903Z,2.55
2018-07-09T03:37:50.287Z,2.35
2018-07-09T03:38:53.711Z,2.20
2018-07-09T03:39:57.096Z,2.60
2018-07-09T03:41:01.996Z,2.22
2018-07-09T03:42:05.419Z,2.67
2018-07-09T03:43:08.803Z,2.33
2018-07-09T03:44:12.196Z,2.50
2018-07-09T03:45:16.662Z,2.40
2018-07-09T03:46:21.201Z,2.33
2018-07-09T03:47:24.632Z,2.50
2018-07-09T03:48:28.043Z,2.40
2018-07-09T03:49:31.135Z,2.60
2018-07-09T03:50:35.693Z,2.45
2018-07-09T03:51:39.111Z,2.52
2018-07-09T03:52:42.193Z,2.50
2018-07-09T03:53:45.272Z,2.72
2018-07-09T03:54:48.371Z,2.70
2018-07-09T03:55:52.075Z,2.87
2018-07-09T03:56:55.487Z,2.80
2018-07-09T03:57:58.888Z,2.70
2018-07-09T03:59:02.275Z,3.00
2018-07-09T04:00:06.648Z,3.00
2018-07-09T04:01:11.154Z,2.72
2018-07-09T04:02:14.695Z,3.00
2018-07-09T04:03:18.044Z,2.87
2018-07-09T04:04:21.435Z,2.65
2018-07-09T04:05:26.330Z,2.50
2018-07-09T04:06:30.437Z,2.70
2018-07-09T04:07:33.827Z,2.70
2018-07-09T04:08:37.216Z,3.25
2018-07-09T04:09:40.599Z,2.47
2018-07-09T04:10:45.237Z,2.90
2018-07-09T04:11:48.697Z,2.80
2018-07-09T04:12:52.090Z,2.77
2018-07-09T04:13:55.475Z,2.72
2018-07-09T04:14:58.864Z,2.70
2018-07-09T04:16:03.461Z,3.10
2018-07-09T04:17:06.868Z,3.10
2018-07-09T04:18:10.259Z,3.05
2018-07-09T04:19:13.643Z,2.95
2018-07-09T04:20:18.055Z,2.85
2018-07-09T04:21:22.877Z,3.00
2018-07-09T04:22:26.256Z,3.05
2018-07-09T04:23:29.645Z,2.95
2018-07-09T04:24:33.043Z,3.30
2018-07-09T04:25:37.460Z,2.92
2018-07-09T04:26:40.881Z,3.62
2018-07-09T04:27:43.960Z,4.20
2018-07-09T04:28:47.034Z,3.10
2018-07-09T04:29:50.135Z,3.30
2018-07-09T04:30:54.642Z,3.60
2018-07-09T04:31:58.084Z,3.37
2018-07-09T04:33:01.471Z,3.05
2018-07-09T04:34:04.891Z,3.62
2018-07-09T04:35:08.861Z,3.35
2018-07-09T04:36:13.350Z,3.10
2018-07-09T04:37:16.807Z,3.17
2018-07-09T04:38:20.219Z,3.72
2018-07-09T04:39:23.624Z,3.95
2018-07-09T04:40:28.242Z,3.10
2018-07-09T04:41:31.664Z,3.98
2018-07-09T04:42:35.075Z,3.90
2018-07-09T04:43:38.451Z,3.10
2018-07-09T04:44:41.836Z,3.50
2018-07-09T04:45:46.418Z,4.30
2018-07-09T04:46:49.831Z,3.40
2018-07-09T04:47:53.235Z,3.80
2018-07-09T04:48:56.644Z,3.45
2018-07-09T04:50:00.038Z,3.50
2018-07-09T04:51:04.690Z,4.22
2018-07-09T04:52:07.803Z,4.10
2018-07-09T04:53:11.219Z,3.90
2018-07-09T04:54:14.683Z,3.62
2018-07-09T04:55:19.045Z,3.87
2018-07-09T04:56:23.127Z,3.83
2018-07-09T04:57:26.247Z,3.37
2018-07-09T04:58:29.338Z,3.67
2018-07-09T04:59:32.719Z,3.75
2018-07-09T05:00:37.699Z,3.72
2018-07-09T05:01:41.127Z,3.40
2018-07-09T05:02:44.509Z,4.10
2018-07-09T05:03:47.650Z,3.70
2018-07-09T05:04:51.184Z,3.20
2018-07-09T05:05:56.184Z,3.30
2018-07-09T05:06:59.608Z,3.12
2018-07-09T05:08:02.993Z,3.45
2018-07-09T05:09:07.175Z,3.27
2018-07-09T05:10:11.563Z,3.45
2018-07-09T05:11:15.506Z,2.85
2018-07-09T05:12:18.931Z,3.67
2018-07-09T05:13:22.350Z,3.10
2018-07-09T05:14:25.777Z,2.70
2018-07-09T05:15:30.292Z,2.90
2018-07-09T05:16:33.747Z,3.12
2018-07-09T05:17:37.135Z,2.92
2018-07-09T05:18:40.207Z,3.52
2018-07-09T05:19:43.324Z,2.98
2018-07-09T05:20:47.864Z,3.25
2018-07-09T05:21:50.994Z,2.80
2018-07-09T05:22:54.385Z,2.67
2018-07-09T05:23:57.783Z,3.33
2018-07-09T05:25:01.191Z,3.10
2018-07-09T05:26:05.610Z,3.70
2018-07-09T05:27:09.007Z,2.90
2018-07-09T05:28:12.407Z,3.20
2018-07-09T05:29:15.486Z,4.25
2018-07-09T05:30:19.368Z,3.22
2018-07-09T05:31:23.980Z,3.17
2018-07-09T05:32:27.979Z,3.10
2018-07-09T05:33:31.379Z,2.72
2018-07-09T05:34:34.806Z,2.87
2018-07-09T05:35:39.373Z,3.10
2018-07-09T05:36:42.796Z,3.20
2018-07-09T05:37:46.193Z,3.30
2018-07-09T05:38:49.592Z,3.25
2018-07-09T05:39:53.056Z,4.00
2018-07-09T05:40:57.669Z,3.30
2018-07-09T05:42:01.087Z,2.87
2018-07-09T05:43:04.487Z,3.40
2018-07-09T05:44:07.932Z,3.27
2018-07-09T05:45:12.280Z,2.95
2018-07-09T05:46:16.598Z,3.02
2018-07-09T05:47:19.999Z,2.30
2018-07-09T05:48:23.630Z,2.90
2018-07-09T05:49:27.024Z,3.08
2018-07-09T05:50:32.119Z,3.08
2018-07-09T05:51:35.575Z,3.20
2018-07-09T05:52:38.997Z,3.12
2018-07-09T05:53:42.404Z,2.27
2018-07-09T05:54:45.811Z,2.77
2018-07-09T05:55:50.181Z,2.50
2018-07-09T05:56:53.643Z,2.72
2018-07-09T05:57:57.024Z,2.92
2018-07-09T05:59:00.446Z,2.80
2018-07-09T06:00:04.552Z,2.35
2018-07-09T06:01:09.114Z,2.90
2018-07-09T06:02:12.265Z,2.45
2018-07-09T06:03:15.671Z,2.75
2018-07-09T06:04:19.075Z,2.80
2018-07-09T06:05:23.519Z,2.50
2018-07-09T06:06:28.728Z,2.40
2018-07-09T06:07:32.133Z,2.33
2018-07-09T06:08:35.536Z,2.58
2018-07-09T06:09:39.059Z,2.72
2018-07-09T06:10:45.732Z,2.37
2018-07-09T06:11:49.135Z,2.42
2018-07-09T06:12:52.571Z,2.50
2018-07-09T06:13:55.978Z,2.25
2018-07-09T06:14:59.416Z,1.98
2018-07-09T06:16:04.296Z,2.20
2018-07-09T06:17:07.804Z,2.30
2018-07-09T06:18:11.267Z,2.15
2018-07-09T06:19:14.659Z,1.60
2018-07-09T06:20:19.769Z,1.95
2018-07-09T06:21:24.109Z,2.20
2018-07-09T06:22:27.644Z,1.95
2018-07-09T06:23:31.048Z,1.72
2018-07-09T06:24:34.440Z,1.60
2018-07-09T06:25:38.905Z,2.05
2018-07-09T06:26:42.324Z,1.90
2018-07-09T06:27:45.701Z,1.90
2018-07-09T06:28:49.623Z,1.87
2018-07-09T06:29:53.020Z,2.08
2018-07-09T06:30:58.153Z,2.15
2018-07-09T06:32:01.556Z,1.75
2018-07-09T06:33:04.647Z,1.90
2018-07-09T06:34:07.735Z,1.82
2018-07-09T06:35:11.452Z,2.52
2018-07-09T06:36:15.938Z,1.90
2018-07-09T06:37:19.348Z,3.20
2018-07-09T06:38:22.864Z,2.27
2018-07-09T06:39:26.311Z,2.12
2018-07-09T06:40:30.888Z,2.27
2018-07-09T06:41:34.313Z,2.08
2018-07-09T06:42:37.860Z,1.65
2018-07-09T06:43:41.328Z,1.90
2018-07-09T06:44:44.839Z,1.82
2018-07-09T06:45:49.630Z,1.65
2018-07-09T06:46:53.079Z,1.87
2018-07-09T06:47:56.159Z,1.80
2018-07-09T06:48:59.242Z,1.80
2018-07-09T06:50:03.125Z,1.87
2018-07-09T06:51:07.201Z,2.00
2018-07-09T06:52:10.623Z,2.22
2018-07-09T06:53:14.023Z,1.90
2018-07-09T06:54:17.437Z,2.10
2018-07-09T06:55:21.840Z,1.72
2018-07-09T06:56:26.757Z,2.20
2018-07-09T06:57:30.225Z,2.00
2018-07-09T06:58:33.631Z,2.60
2018-07-09T06:59:37.027Z,1.90
2018-07-09T07:00:41.454Z,1.70
2018-07-09T07:01:44.859Z,1.90
2018-07-09T07:02:48.316Z,1.60
2018-07-09T07:03:51.736Z,1.70
2018-07-09T07:04:55.123Z,1.90
2018-07-09T07:05:59.794Z,1.60
2018-07-09T07:07:03.407Z,1.40
2018-07-09T07:08:06.795Z,1.87
2018-07-09T07:09:10.355Z,1.50
2018-07-09T07:10:14.830Z,1.60
2018-07-09T07:11:19.352Z,1.47
2018-07-09T07:12:22.782Z,1.90
2018-07-09T07:13:26.163Z,1.57
2018-07-09T07:14:29.642Z,1.60
2018-07-09T07:15:34.143Z,1.80
2018-07-09T07:16:37.578Z,1.60
2018-07-09T07:17:40.975Z,2.22
2018-07-09T07:18:44.371Z,1.60
2018-07-09T07:19:47.760Z,1.90
2018-07-09T07:20:51.761Z,1.40
2018-07-09T07:21:55.184Z,1.65
2018-07-09T07:22:58.571Z,1.70
2018-07-09T07:24:01.975Z,1.82
2018-07-09T07:25:06.574Z,1.77
2018-07-09T07:26:10.968Z,1.47
2018-07-09T07:27:14.415Z,1.85
2018-07-09T07:28:17.799Z,1.30
2018-07-09T07:29:21.187Z,1.42
2018-07-09T07:30:25.696Z,1.75
2018-07-09T07:31:29.852Z,1.57
2018-07-09T07:32:33.268Z,1.60
2018-07-09T07:33:36.667Z,1.40
2018-07-09T07:34:40.067Z,1.37
2018-07-09T07:35:44.102Z,1.92
2018-07-09T07:36:47.563Z,1.65
2018-07-09T07:37:50.664Z,1.70
2018-07-09T07:38:54.050Z,1.60
2018-07-09T07:39:57.436Z,1.80
2018-07-09T07:41:01.980Z,1.70
2018-07-09T07:42:05.420Z,1.60
2018-07-09T07:43:08.825Z,1.90
2018-07-09T07:44:12.211Z,1.65
2018-07-09T07:45:16.704Z,1.72
2018-07-09T07:46:21.166Z,1.80
2018-07-09T07:47:24.294Z,1.90
2018-07-09T07:48:27.739Z,1.40
2018-07-09T07:49:31.132Z,1.32
2018-07-09T07:50:35.704Z,1.77
2018-07-09T07:51:39.163Z,1.20
2018-07-09T07:52:42.248Z,1.60
2018-07-09T07:53:45.364Z,1.52
2018-07-09T07:54:48.760Z,1.70
2018-07-09T07:55:53.421Z,1.47
2018-07-09T07:56:56.859Z,1.77
2018-07-09T07:58:00.237Z,2.10
2018-07-09T07:59:03.670Z,1.70
2018-07-09T08:00:09.585Z,1.80
2018-07-09T08:01:14.174Z,2.05
2018-07-09T08:02:17.614Z,1.70
2018-07-09T08:03:21.027Z,2.00
2018-07-09T08:04:24.803Z,2.10
2018-07-09T08:05:28.734Z,1.62
2018-07-09T08:06:32.200Z,2.10
2018-07-09T08:07:36.155Z,2.92
2018-07-09T08:08:39.943Z,1.80
2018-07-09T08:09:43.432Z,2.15
2018-07-09T08:10:47.654Z,1.62
2018-07-09T08:11:50.762Z,1.98
2018-07-09T08:13:26.877Z,1.90
2018-07-09T08:13:57.299Z,1.87
2018-07-09T08:15:01.004Z,2.05
2018-07-09T08:16:05.273Z,1.92
2018-07-09T08:17:08.707Z,1.98
2018-07-09T08:18:11.787Z,1.80
2018-07-09T08:19:14.882Z,2.10
2018-07-09T08:20:18.742Z,2.00
2018-07-09T08:21:22.459Z,2.00
2018-07-09T08:22:25.923Z,2.27
2018-07-09T08:23:29.319Z,2.10
2018-07-09T08:24:32.700Z,1.80
2018-07-09T08:25:37.327Z,2.00
2018-07-09T08:26:40.612Z,1.82
2018-07-09T08:27:43.691Z,1.80
2018-07-09T08:28:46.771Z,2.20
2018-07-09T08:29:50.307Z,1.95
2018-07-09T08:30:55.242Z,1.95
2018-07-09T08:31:58.690Z,1.60
2018-07-09T08:33:02.077Z,1.77
2018-07-09T08:34:05.519Z,2.00
2018-07-09T08:35:09.932Z,1.72
2018-07-09T08:36:14.575Z,2.05
2018-07-09T08:37:18.029Z,2.37
2018-07-09T08:38:21.408Z,1.90
2018-07-09T08:39:24.806Z,1.62
2018-07-09T08:40:29.195Z,1.75
2018-07-09T08:41:32.624Z,2.10
2018-07-09T08:42:35.702Z,2.17
2018-07-09T08:43:38.782Z,2.00
2018-07-09T08:44:43.071Z,2.05
2018-07-09T08:45:47.424Z,2.12
2018-07-09T08:46:50.893Z,1.87
2018-07-09T08:47:54.275Z,2.30
2018-07-09T08:48:57.348Z,1.98
2018-07-09T08:50:00.428Z,1.98
2018-07-09T08:51:04.747Z,2.55
2018-07-09T08:52:08.191Z,2.17
2018-07-09T08:53:11.588Z,2.12
2018-07-09T08:54:15.147Z,2.60
2018-07-09T08:55:19.743Z,1.90
2018-07-09T08:56:24.223Z,1.95
2018-07-09T08:57:27.648Z,1.92
2018-07-09T08:58:31.032Z,2.15
2018-07-09T08:59:34.471Z,2.25
2018-07-09T09:00:39.144Z,1.80
2018-07-09T09:01:42.532Z,2.27
2018-07-09T09:02:45.945Z,2.20
2018-07-09T09:03:49.431Z,2.17
2018-07-09T09:04:52.783Z,1.98
2018-07-09T09:05:57.236Z,2.10
2018-07-09T09:07:00.338Z,2.12
2018-07-09T09:08:03.468Z,2.17
2018-07-09T09:09:06.875Z,2.25
2018-07-09T09:10:11.632Z,2.17
2018-07-09T09:11:16.064Z,1.95
2018-07-09T09:12:19.507Z,2.17
2018-07-09T09:13:22.917Z,2.30
2018-07-09T09:14:26.301Z,2.20
2018-07-09T09:15:30.158Z,1.92
2018-07-09T09:16:33.566Z,1.87
2018-07-09T09:17:36.654Z,2.30
2018-07-09T09:18:39.771Z,2.87
2018-07-09T09:19:43.167Z,2.15
2018-07-09T09:20:47.150Z,2.02
2018-07-09T09:21:50.571Z,1.95
2018-07-09T09:22:54.170Z,1.70
2018-07-09T09:23:57.534Z,1.82
2018-07-09T09:25:00.912Z,2.05
2018-07-09T09:26:04.999Z,2.10
2018-07-09T09:27:08.419Z,2.47
2018-07-09T09:28:11.843Z,2.30
2018-07-09T09:29:14.946Z,2.45
2018-07-09T09:30:19.776Z,2.40
2018-07-09T09:31:24.166Z,1.42
2018-07-09T09:32:27.523Z,1.87
2018-07-09T09:33:30.911Z,2.37
2018-07-09T09:34:34.344Z,2.00
2018-07-09T09:35:38.794Z,2.30
2018-07-09T09:36:41.900Z,2.10
2018-07-09T09:37:45.340Z,2.52
2018-07-09T09:38:48.787Z,2.40
2018-07-09T09:39:52.455Z,2.35
2018-07-09T09:40:58.616Z,2.00
2018-07-09T09:42:01.719Z,2.30
2018-07-09T09:43:05.178Z,2.30
2018-07-09T09:44:08.519Z,2.08
2018-07-09T09:45:12.965Z,2.20
2018-07-09T09:46:18.038Z,2.00
2018-07-09T09:47:21.451Z,2.22
2018-07-09T09:48:24.839Z,2.25
2018-07-09T09:49:28.898Z,2.08
2018-07-09T09:50:33.292Z,2.40
2018-07-09T09:51:36.830Z,2.33
2018-07-09T09:52:40.214Z,2.22
2018-07-09T09:53:43.623Z,2.15
2018-07-09T09:54:47.021Z,1.90
2018-07-09T09:55:51.596Z,2.27
2018-07-09T09:56:55.052Z,2.20
2018-07-09T09:57:58.487Z,2.10
2018-07-09T09:59:01.868Z,2.12
2018-07-09T10:00:07.536Z,2.30
2018-07-09T10:01:12.704Z,2.20
2018-07-09T10:02:16.125Z,2.22
2018-07-09T10:03:19.553Z,2.05
2018-07-09T10:04:22.662Z,1.98
2018-07-09T10:05:27.763Z,2.00
2018-07-09T10:06:31.198Z,1.95
2018-07-09T10:07:34.618Z,2.00
2018-07-09T10:08:38.084Z,2.20
2018-07-09T10:09:41.425Z,2.10
2018-07-09T10:10:46.101Z,1.95
2018-07-09T10:11:49.536Z,1.92
2018-07-09T10:12:52.956Z,1.92
2018-07-09T10:13:56.375Z,2.20
2018-07-09T10:14:59.451Z,2.25
2018-07-09T10:16:04.019Z,2.45
2018-07-09T10:17:07.463Z,1.85
2018-07-09T10:18:10.860Z,2.52
2018-07-09T10:19:14.240Z,2.52
2018-07-09T10:20:18.662Z,2.30
2018-07-09T10:21:24.056Z,2.20
2018-07-09T10:22:27.511Z,2.20
2018-07-09T10:23:30.901Z,1.80
2018-07-09T10:24:34.312Z,2.20
2018-07-09T10:25:38.636Z,2.80
2018-07-09T10:26:42.040Z,1.90
2018-07-09T10:27:45.644Z,2.30
2018-07-09T10:28:49.031Z,2.40
2018-07-09T10:29:52.419Z,2.33
2018-07-09T10:30:57.272Z,2.12
2018-07-09T10:32:00.701Z,2.95
2018-07-09T10:33:03.794Z,2.42
2018-07-09T10:34:07.191Z,1.35
2018-07-09T10:35:11.619Z,2.08
2018-07-09T10:36:16.722Z,2.65
2018-07-09T10:37:20.139Z,2.70
2018-07-09T10:38:23.558Z,2.90
2018-07-09T10:39:26.942Z,2.60
2018-07-09T10:40:30.789Z,2.72
2018-07-09T10:41:34.183Z,2.42
2018-07-09T10:42:37.599Z,2.42
2018-07-09T10:43:41.023Z,1.82
2018-07-09T10:44:44.407Z,1.90
2018-07-09T10:45:49.136Z,2.20
2018-07-09T10:46:52.563Z,2.20
2018-07-09T10:47:55.956Z,2.58
2018-07-09T10:48:59.408Z,2.40
2018-07-09T10:50:02.847Z,2.22
2018-07-09T10:51:07.342Z,2.37
2018-07-09T10:52:10.739Z,2.60
2018-07-09T10:53:14.152Z,2.40
2018-07-09T10:54:17.563Z,1.92
2018-07-09T10:55:22.072Z,2.70
2018-07-09T10:56:26.338Z,2.30
2018-07-09T10:57:29.483Z,1.92
2018-07-09T10:58:32.895Z,2.75
2018-07-09T10:59:36.302Z,2.30
2018-07-09T11:00:40.288Z,2.62
2018-07-09T11:01:43.718Z,2.90
2018-07-09T11:02:47.112Z,2.40
2018-07-09T11:03:50.528Z,2.42
2018-07-09T11:04:53.972Z,2.60
2018-07-09T11:05:58.396Z,2.87
2018-07-09T11:07:02.312Z,2.52
2018-07-09T11:08:05.695Z,2.60
2018-07-09T11:09:09.114Z,2.55
2018-07-09T11:10:13.671Z,2.30
2018-07-09T11:11:18.950Z,2.62
2018-07-09T11:12:22.348Z,2.30
2018-07-09T11:13:25.430Z,2.00
2018-07-09T11:14:28.823Z,2.17
2018-07-09T11:15:33.748Z,2.47
2018-07-09T11:16:37.304Z,2.05
2018-07-09T11:17:40.703Z,1.90
2018-07-09T11:18:44.069Z,1.77
2018-07-09T11:19:47.559Z,2.12
2018-07-09T11:20:53.673Z,2.70
2018-07-09T11:21:57.120Z,1.90
2018-07-09T11:23:00.222Z,1.92
2018-07-09T11:24:03.303Z,2.20
2018-07-09T11:25:07.722Z,2.20
2018-07-09T11:26:12.221Z,2.27
2018-07-09T11:27:15.624Z,1.95
2018-07-09T11:28:19.010Z,2.25
2018-07-09T11:29:22.405Z,2.08
2018-07-09T11:30:26.805Z,2.20
2018-07-09T11:31:30.516Z,2.20
2018-07-09T11:32:33.907Z,2.30
2018-07-09T11:33:37.328Z,2.25
2018-07-09T11:34:40.718Z,2.30
2018-07-09T11:35:44.305Z,2.70
2018-07-09T11:36:47.447Z,3.50
2018-07-09T11:37:50.835Z,2.40
2018-07-09T11:38:54.232Z,2.20
2018-07-09T11:39:57.815Z,2.40
2018-07-09T11:41:02.308Z,2.30
2018-07-09T11:42:05.762Z,2.05
2018-07-09T11:43:08.839Z,1.87
2018-07-09T11:44:12.224Z,2.35
2018-07-09T11:45:16.116Z,1.37
2018-07-09T11:46:20.665Z,2.50
2018-07-09T11:47:24.125Z,1.87
2018-07-09T11:48:27.516Z,2.22
2018-07-09T11:49:30.904Z,2.05
2018-07-09T11:50:35.598Z,2.12
2018-07-09T11:51:38.762Z,1.87
2018-07-09T11:52:42.163Z,2.27
2018-07-09T11:53:45.548Z,2.00
2018-07-09T11:54:48.928Z,1.55
2018-07-09T11:55:53.535Z,2.00
2018-07-09T11:56:56.651Z,1.70
2018-07-09T11:57:59.770Z,1.70
2018-07-09T11:59:03.197Z,1.40
2018-07-09T12:00:07.749Z,1.62
2018-07-09T12:01:12.322Z,1.42
2018-07-09T12:02:15.754Z,1.70
2018-07-09T12:03:19.175Z,2.08
2018-07-09T12:04:22.575Z,1.80
2018-07-09T12:05:27.084Z,1.47
2018-07-09T12:06:30.527Z,2.12
2018-07-09T12:07:33.951Z,1.57
2018-07-09T12:08:37.403Z,1.80
2018-07-09T12:09:40.791Z,1.60
2018-07-09T12:10:45.182Z,1.87
2018-07-09T12:11:48.594Z,2.00
2018-07-09T12:12:51.991Z,1.40
2018-07-09T12:13:55.408Z,1.72
2018-07-09T12:14:58.795Z,1.70
2018-07-09T12:16:02.538Z,1.82
2018-07-09T12:17:06.287Z,1.85
2018-07-09T12:18:09.380Z,1.75
2018-07-09T12:19:12.487Z,1.70
2018-07-09T12:20:17.046Z,1.45
2018-07-09T12:21:21.044Z,1.57
2018-07-09T12:22:24.150Z,1.40
2018-07-09T12:23:27.538Z,1.70
2018-07-09T12:24:30.969Z,1.47
2018-07-09T12:25:35.476Z,1.92
2018-07-09T12:26:38.907Z,1.80
2018-07-09T12:27:42.305Z,2.00
2018-07-09T12:28:45.699Z,2.08
2018-07-09T12:29:48.838Z,2.05
2018-07-09T12:30:53.425Z,1.80
2018-07-09T12:31:56.867Z,1.98
2018-07-09T12:32:59.956Z,1.70
2018-07-09T12:34:03.042Z,2.52
2018-07-09T12:35:07.661Z,1.90
2018-07-09T12:36:12.330Z,2.25
2018-07-09T12:37:15.703Z,2.08
2018-07-09T12:38:19.191Z,1.72
2018-07-09T12:39:22.622Z,2.30
2018-07-09T12:40:26.654Z,2.00
2018-07-09T12:41:37.072Z,1.98
2018-07-09T12:42:40.234Z,2.42
2018-07-09T12:43:43.700Z,1.98
2018-07-09T12:44:47.108Z,2.55
2018-07-09T12:45:51.846Z,3.02
2018-07-09T12:46:55.295Z,2.37
2018-07-09T12:47:58.683Z,2.42
2018-07-09T12:49:02.479Z,2.33
2018-07-09T12:50:07.672Z,2.40
2018-07-09T12:51:12.195Z,2.83
2018-07-09T12:52:15.619Z,2.37
2018-07-09T12:53:19.007Z,2.87
2018-07-09T12:54:22.399Z,2.62
2018-07-09T12:55:27.582Z,2.80
2018-07-09T12:56:31.090Z,2.90
2018-07-09T12:57:34.475Z,3.25
2018-07-09T12:58:37.879Z,2.90
2018-07-09T12:59:41.276Z,2.70
2018-07-09T13:00:45.604Z,3.12
2018-07-09T13:01:52.244Z,3.05
2018-07-09T13:02:55.603Z,2.52
2018-07-09T13:03:59.015Z,2.85
2018-07-09T13:05:02.417Z,2.70
2018-07-09T13:06:07.351Z,2.58
2018-07-09T13:07:10.795Z,3.50
2018-07-09T13:08:14.187Z,3.60
2018-07-09T13:09:17.591Z,2.98
2018-07-09T13:10:22.038Z,3.23
2018-07-09T13:11:26.167Z,3.00
2018-07-09T13:12:29.694Z,2.62
2018-07-09T13:13:33.144Z,2.83
2018-07-09T13:14:36.614Z,2.60
2018-07-09T13:15:40.978Z,3.30
2018-07-09T13:16:44.407Z,3.08
2018-07-09T13:17:47.831Z,2.87
2018-07-09T13:18:51.231Z,2.70
2018-07-09T13:19:54.822Z,3.25
2018-07-09T13:20:59.462Z,2.77
2018-07-09T13:22:02.900Z,2.90
2018-07-09T13:23:06.323Z,2.77
2018-07-09T13:24:09.715Z,2.70
2018-07-09T13:25:14.203Z,3.10
2018-07-09T13:26:18.430Z,3.20
2018-07-09T13:27:21.875Z,2.55
2018-07-09T13:28:25.291Z,3.02
2018-07-09T13:29:28.851Z,2.72
2018-07-09T13:30:33.414Z,3.45
2018-07-09T13:31:36.818Z,2.92
2018-07-09T13:32:40.216Z,2.52
2018-07-09T13:33:43.631Z,2.83
2018-07-09T13:34:47.032Z,3.30
2018-07-09T13:35:51.605Z,2.90
2018-07-09T13:36:55.251Z,2.90
2018-07-09T13:37:58.763Z,3.40
2018-07-09T13:39:02.113Z,2.90
2018-07-09T13:40:06.715Z,2.67
2018-07-09T13:41:10.516Z,2.37
2018-07-09T13:42:13.618Z,3.10
2018-07-09T13:43:17.081Z,2.87
2018-07-09T13:44:20.435Z,2.80
2018-07-09T13:45:24.929Z,2.55
2018-07-09T13:46:29.375Z,2.40
2018-07-09T13:47:32.768Z,2.65
2018-07-09T13:48:36.163Z,2.42
2018-07-09T13:49:39.579Z,2.30
2018-07-09T13:50:43.661Z,2.50
2018-07-09T13:51:47.103Z,1.92
2018-07-09T13:52:50.519Z,2.50
2018-07-09T13:53:53.939Z,2.58
2018-07-09T13:54:57.369Z,3.92
2018-07-09T13:56:01.852Z,2.20
2018-07-09T13:57:05.295Z,1.92
2018-07-09T13:58:08.890Z,2.10
2018-07-09T13:59:12.283Z,2.10
2018-07-09T14:00:16.959Z,2.55
2018-07-09T14:01:22.008Z,2.25
2018-07-09T14:02:25.411Z,2.10
2018-07-09T14:03:28.511Z,2.58
2018-07-09T14:04:31.909Z,2.20
2018-07-09T14:05:36.432Z,2.35
2018-07-09T14:06:40.143Z,1.85
2018-07-09T14:07:43.527Z,2.40
2018-07-09T14:08:46.915Z,2.20